createdAt,value
2022-08-29T00:01:07.196Z,51805.73
2022-08-29T00:03:37.085Z,51802.52
2022-08-29T00:06:07.127Z,51818.19
2022-08-29T00:08:37.025Z,51809.35
2022-08-29T00:11:08.215Z,51805.33
2022-08-29T00:13:38.131Z,51794.88
2022-08-29T00:16:09.070Z,51817.79
2022-08-29T00:18:39.190Z,51813.37
2022-08-29T00:21:09.417Z,51799.71
2022-08-29T00:23:39.859Z,51816.59
2022-08-29T00:26:09.696Z,51819.80
2022-08-29T00:28:39.549Z,51827.03
2022-08-29T00:31:09.595Z,51810.96
2022-08-29T00:33:39.619Z,51810.15
2022-08-29T00:36:10.337Z,51801.71
2022-08-29T00:38:40.222Z,51821.80
2022-08-29T00:41:11.875Z,51806.54
2022-08-29T00:43:41.742Z,51805.33
2022-08-29T00:46:18.079Z,51827.43
2022-08-29T00:48:47.981Z,51813.77
2022-08-29T00:51:20.521Z,51825.82
2022-08-29T00:53:51.754Z,51813.77
2022-08-29T00:56:21.698Z,51815.38
2022-08-29T00:58:53.702Z,51827.03
2022-08-29T01:01:24.368Z,51831.05
2022-08-29T01:03:54.219Z,51828.64
2022-08-29T01:06:24.233Z,51836.27
2022-08-29T01:08:57.689Z,51843.10
2022-08-29T01:11:45.990Z,51838.68
2022-08-29T01:14:15.938Z,51837.88
2022-08-29T01:16:46.061Z,51836.68
2022-08-29T01:19:32.221Z,51850.34
2022-08-29T01:22:04.731Z,51850.34
2022-08-29T01:24:36.334Z,51851.95
2022-08-29T01:27:06.233Z,51856.77
2022-08-29T01:29:36.422Z,51849.93
2022-08-29T01:32:06.722Z,51848.73
2022-08-29T01:34:36.619Z,51847.12
2022-08-29T01:37:06.789Z,51843.50
2022-08-29T01:39:37.689Z,51845.51
2022-08-29T01:42:10.406Z,51863.59
2022-08-29T01:44:40.461Z,51847.93
2022-08-29T01:47:11.672Z,51843.91
2022-08-29T01:49:41.848Z,51848.32
2022-08-29T01:52:13.044Z,51852.34
2022-08-29T01:54:43.545Z,51854.76
2022-08-29T01:57:13.608Z,51854.76
2022-08-29T01:59:43.544Z,51851.95
2022-08-29T02:02:15.888Z,51868.01
2022-08-29T02:04:47.444Z,51858.77
2022-08-29T02:07:18.945Z,51856.76
2022-08-29T02:09:48.851Z,51853.55
2022-08-29T02:12:18.644Z,51855.16
2022-08-29T02:14:48.493Z,51861.18
2022-08-29T02:17:18.450Z,51859.98
2022-08-29T02:19:48.339Z,51858.37
2022-08-29T02:22:18.670Z,51870.43
2022-08-29T02:24:48.502Z,51870.83
2022-08-29T02:27:18.232Z,51874.04
2022-08-29T02:29:48.260Z,51864.40
2022-08-29T02:32:18.165Z,51871.63
2022-08-29T02:34:48.683Z,51870.02
2022-08-29T02:37:18.674Z,51878.87
2022-08-29T02:39:49.071Z,51873.24
2022-08-29T02:42:18.785Z,51880.07
2022-08-29T02:44:48.658Z,51896.95
2022-08-29T02:47:18.687Z,51882.48
2022-08-29T02:49:49.042Z,51876.85
2022-08-29T02:52:19.085Z,51885.70
2022-08-29T02:54:48.995Z,51891.32
2022-08-29T02:57:18.714Z,51880.07
2022-08-29T02:59:48.538Z,51884.09
2022-08-29T03:02:18.555Z,51892.93
2022-08-29T03:04:48.354Z,51895.74
2022-08-29T03:07:18.221Z,51882.48
2022-08-29T03:09:48.188Z,51878.87
2022-08-29T03:12:18.074Z,51882.08
2022-08-29T03:14:47.895Z,51881.27
2022-08-29T03:17:18.079Z,51883.29
2022-08-29T03:19:48.003Z,51883.29
2022-08-29T03:22:18.401Z,51872.44
2022-08-29T03:24:48.245Z,51886.90
2022-08-29T03:27:18.576Z,51878.06
2022-08-29T03:29:48.577Z,51882.48
2022-08-29T03:32:18.680Z,51878.46
2022-08-29T03:34:48.685Z,51880.07
2022-08-29T03:37:18.770Z,51878.06
2022-08-29T03:39:48.770Z,51891.32
2022-08-29T03:42:18.734Z,51873.24
2022-08-29T03:44:48.695Z,51874.04
2022-08-29T03:47:18.595Z,51876.46
2022-08-29T03:49:48.627Z,51880.88
2022-08-29T03:52:18.655Z,51891.32
2022-08-29T03:54:48.796Z,51877.26
2022-08-29T03:57:18.813Z,51879.26
2022-08-29T03:59:54.057Z,51867.62
2022-08-29T04:02:24.671Z,51892.52
2022-08-29T04:05:10.302Z,51877.66
2022-08-29T04:07:41.281Z,51853.15
2022-08-29T04:10:11.813Z,51864.80
2022-08-29T04:12:41.782Z,51867.61
2022-08-29T04:15:12.067Z,51866.41
2022-08-29T04:17:52.680Z,51858.38
2022-08-29T04:20:25.416Z,51855.56
2022-08-29T04:22:55.690Z,51857.57
2022-08-29T04:25:26.351Z,51859.58
2022-08-29T04:27:56.201Z,51856.36
2022-08-29T04:30:26.231Z,51850.34
2022-08-29T04:32:56.077Z,51839.48
2022-08-29T04:35:26.083Z,51855.56
2022-08-29T04:37:56.110Z,51847.12
2022-08-29T04:40:26.314Z,51837.48
2022-08-29T04:42:56.267Z,51833.05
2022-08-29T04:45:26.707Z,51837.88
2022-08-29T04:47:58.917Z,51836.27
2022-08-29T04:50:30.683Z,51832.66
2022-08-29T04:53:00.934Z,51838.28
2022-08-29T04:55:31.477Z,51817.39
2022-08-29T04:58:01.698Z,51816.58
2022-08-29T05:00:34.187Z,51801.71
2022-08-29T05:03:04.055Z,51790.87
2022-08-29T05:05:33.854Z,51792.07
2022-08-29T05:08:04.443Z,51806.94
2022-08-29T05:10:34.968Z,51815.78
2022-08-29T05:13:05.083Z,51796.09
2022-08-29T05:15:34.987Z,51799.71
2022-08-29T05:18:05.028Z,51788.05
2022-08-29T05:20:35.234Z,51795.29
2022-08-29T05:23:05.095Z,51808.14
2022-08-29T05:25:35.089Z,51779.21
2022-08-29T05:28:05.176Z,51783.23
2022-08-29T05:30:35.552Z,51794.08
2022-08-29T05:33:05.457Z,51794.48
2022-08-29T05:35:35.786Z,51779.62
2022-08-29T05:38:15.112Z,51779.21
2022-08-29T05:40:45.132Z,51769.17
2022-08-29T05:43:14.889Z,51770.77
2022-08-29T05:45:44.751Z,51772.78
2022-08-29T05:48:17.671Z,51768.37
2022-08-29T05:50:47.417Z,51744.66
2022-08-29T05:53:19.199Z,51746.66
2022-08-29T05:55:49.024Z,51759.93
2022-08-29T05:58:19.883Z,51737.02
2022-08-29T06:00:50.377Z,51735.02
2022-08-29T06:03:20.387Z,51740.24
2022-08-29T06:05:52.653Z,51728.59
2022-08-29T06:08:22.465Z,51724.16
2022-08-29T06:10:52.432Z,51725.77
2022-08-29T06:13:22.404Z,51721.76
2022-08-29T06:15:52.354Z,51714.52
2022-08-29T06:18:22.924Z,51714.93
2022-08-29T06:21:07.039Z,51713.31
2022-08-29T06:23:36.835Z,51716.13
2022-08-29T06:26:06.863Z,51717.33
2022-08-29T06:28:37.782Z,51709.30
2022-08-29T06:31:08.637Z,51692.82
2022-08-29T06:33:38.651Z,51685.59
2022-08-29T06:36:09.078Z,51697.64
2022-08-29T06:38:38.934Z,51701.66
2022-08-29T06:41:09.687Z,51681.98
2022-08-29T06:43:39.504Z,51671.13
2022-08-29T06:46:09.446Z,51679.16
2022-08-29T06:48:39.269Z,51673.14
2022-08-29T06:51:09.145Z,51661.08
2022-08-29T06:53:39.099Z,51657.46
2022-08-29T06:56:11.203Z,51659.88
2022-08-29T06:58:41.561Z,51651.44
2022-08-29T07:01:11.567Z,51648.23
2022-08-29T07:03:41.408Z,51643.80
2022-08-29T07:06:11.256Z,51629.74
2022-08-29T07:08:55.452Z,51637.77
2022-08-29T07:11:26.151Z,51617.68
2022-08-29T07:13:58.503Z,51631.35
2022-08-29T07:16:28.270Z,51616.48
2022-08-29T07:18:57.996Z,51598.80
2022-08-29T07:21:28.086Z,51600.41
2022-08-29T07:23:58.500Z,51599.60
2022-08-29T07:26:29.774Z,51593.18
2022-08-29T07:29:00.284Z,51591.17
2022-08-29T07:31:36.202Z,51591.97
2022-08-29T07:34:06.206Z,51565.85
2022-08-29T07:36:36.283Z,51563.85
2022-08-29T07:39:06.867Z,51563.04
2022-08-29T07:41:36.752Z,51548.18
2022-08-29T07:44:06.845Z,51556.61
2022-08-29T07:46:37.028Z,51560.63
2022-08-29T07:49:06.899Z,51539.74
2022-08-29T07:51:37.099Z,51549.79
2022-08-29T07:54:11.483Z,51527.28
2022-08-29T07:56:42.214Z,51525.27
2022-08-29T07:59:12.149Z,51528.49
2022-08-29T08:01:42.457Z,51523.67
2022-08-29T08:04:12.497Z,51515.63
2022-08-29T08:06:43.566Z,51526.08
2022-08-29T08:09:14.474Z,51518.84
2022-08-29T08:11:44.620Z,51504.38
2022-08-29T08:14:14.632Z,51485.50
2022-08-29T08:16:44.839Z,51496.75
2022-08-29T08:19:15.700Z,51489.52
2022-08-29T08:21:49.923Z,51486.30
2022-08-29T08:24:20.280Z,51477.87
2022-08-29T08:26:50.431Z,51484.29
2022-08-29T08:29:20.346Z,51471.43
2022-08-29T08:31:51.251Z,51465.41
2022-08-29T08:34:21.490Z,51457.77
2022-08-29T08:36:51.770Z,51446.13
2022-08-29T08:39:22.407Z,51442.91
2022-08-29T08:41:54.128Z,51440.90
2022-08-29T08:44:43.573Z,51423.22
2022-08-29T08:47:15.884Z,51428.45
2022-08-29T08:49:46.098Z,51419.20
2022-08-29T08:52:17.433Z,51397.10
2022-08-29T08:54:48.334Z,51401.52
2022-08-29T08:57:18.621Z,51383.45
2022-08-29T08:59:50.331Z,51376.21
2022-08-29T09:02:27.813Z,51362.55
2022-08-29T09:04:58.935Z,51364.56
2022-08-29T09:07:33.666Z,51356.52
2022-08-29T09:10:11.145Z,51338.84
2022-08-29T09:12:43.531Z,51343.27
2022-08-29T09:15:14.216Z,51316.35
2022-08-29T09:17:45.453Z,51323.58
2022-08-29T09:20:15.652Z,51323.58
2022-08-29T09:22:47.105Z,51317.55
2022-08-29T09:25:17.058Z,51330.81
2022-08-29T09:27:50.199Z,51326.79
2022-08-29T09:30:22.330Z,51332.42
2022-08-29T09:32:56.835Z,51325.99
2022-08-29T09:35:27.220Z,51330.81
2022-08-29T09:38:03.963Z,51319.16
2022-08-29T09:40:44.440Z,51321.98
2022-08-29T09:43:18.076Z,51325.99
2022-08-29T09:46:01.307Z,51319.97
2022-08-29T09:48:35.347Z,51303.90
2022-08-29T09:51:15.892Z,51299.07
2022-08-29T09:53:45.933Z,51284.61
2022-08-29T09:56:18.586Z,51282.60
2022-08-29T09:58:48.750Z,51279.79
2022-08-29T10:01:24.814Z,51272.15
2022-08-29T10:03:59.422Z,51269.74
2022-08-29T10:06:30.102Z,51257.70
2022-08-29T10:09:04.122Z,51246.84
2022-08-29T10:11:36.060Z,51256.49
2022-08-29T10:14:06.941Z,51252.47
2022-08-29T10:16:45.099Z,51241.22
2022-08-29T10:19:15.664Z,51238.41
2022-08-29T10:21:48.387Z,51223.95
2022-08-29T10:24:22.809Z,51227.96
2022-08-29T10:26:55.403Z,51208.28
2022-08-29T10:29:31.576Z,51211.89
2022-08-29T10:32:04.813Z,51204.66
2022-08-29T10:34:39.355Z,51201.85
2022-08-29T10:37:12.215Z,51214.30
2022-08-29T10:39:44.532Z,51236.80
2022-08-29T10:42:16.331Z,51213.50
2022-08-29T10:44:51.030Z,51204.66
2022-08-29T10:47:24.143Z,51229.17
2022-08-29T10:49:59.389Z,51219.52
2022-08-29T10:52:30.154Z,51226.76
2022-08-29T10:55:04.346Z,51228.77
2022-08-29T10:57:39.284Z,51241.22
2022-08-29T11:00:10.607Z,51224.34
2022-08-29T11:02:41.075Z,51235.20
2022-08-29T11:05:15.285Z,51214.70
2022-08-29T11:07:47.921Z,51220.73
2022-08-29T11:10:19.294Z,51205.87
2022-08-29T11:12:52.597Z,51209.08
2022-08-29T11:15:23.465Z,51203.46
2022-08-29T11:17:55.413Z,51195.82
2022-08-29T11:20:27.141Z,51186.58
2022-08-29T11:22:58.384Z,51197.02
2022-08-29T11:25:28.934Z,51172.12
2022-08-29T11:28:04.715Z,51186.98
2022-08-29T11:30:40.983Z,51171.72
2022-08-29T11:33:15.497Z,51172.52
2022-08-29T11:35:47.705Z,51178.95
2022-08-29T11:38:31.101Z,51156.45
2022-08-29T11:43:57.338Z,51129.93
2022-08-29T11:46:37.771Z,51107.44
2022-08-29T11:49:26.024Z,51103.82
2022-08-29T11:51:56.200Z,51111.45
2022-08-29T11:54:43.380Z,51120.70
2022-08-29T11:57:34.334Z,51113.46
2022-08-29T12:00:05.905Z,51107.04
2022-08-29T12:02:44.579Z,51099.00
2022-08-29T12:05:31.681Z,51072.88
2022-08-29T12:08:14.364Z,51094.98
2022-08-29T12:10:53.779Z,51077.71
2022-08-29T12:13:37.266Z,51081.32
2022-08-29T12:16:09.636Z,51070.88
2022-08-29T12:18:55.888Z,51070.88
2022-08-29T12:21:49.120Z,51068.87
2022-08-29T12:24:32.928Z,51058.02
2022-08-29T12:27:04.315Z,51041.14
2022-08-29T12:29:43.664Z,51029.50
2022-08-29T12:32:31.089Z,51026.29
2022-08-29T12:35:18.571Z,51023.87
2022-08-29T12:37:53.836Z,51027.49
2022-08-29T12:40:29.193Z,51023.47
2022-08-29T12:43:05.054Z,51041.55
2022-08-29T12:45:35.145Z,51052.80
2022-08-29T12:48:06.619Z,51077.71
2022-08-29T12:50:37.238Z,51043.96
2022-08-29T12:53:07.824Z,51054.00
2022-08-29T12:55:40.158Z,51049.59
2022-08-29T12:58:10.286Z,51050.79
2022-08-29T13:00:40.133Z,51047.57
2022-08-29T13:03:15.545Z,51054.40
2022-08-29T13:05:46.119Z,51033.92
2022-08-29T13:08:16.798Z,51041.95
2022-08-29T13:10:54.808Z,51044.76
2022-08-29T13:13:25.170Z,51065.25
2022-08-29T13:15:56.200Z,51051.99
2022-08-29T13:18:26.220Z,51067.66
2022-08-29T13:21:06.167Z,51062.04
2022-08-29T13:23:36.467Z,51048.38
2022-08-29T13:26:09.245Z,51066.05
2022-08-29T13:28:40.753Z,51056.01
2022-08-29T13:31:30.666Z,51037.54
2022-08-29T13:34:20.828Z,51043.56
2022-08-29T13:36:54.973Z,51009.82
2022-08-29T13:39:29.674Z,50996.15
2022-08-29T13:42:14.010Z,50996.55
2022-08-29T13:44:55.050Z,50978.88
2022-08-29T13:47:25.256Z,50986.91
2022-08-29T13:49:57.929Z,50985.30
2022-08-29T13:52:31.717Z,51000.98
2022-08-29T13:55:03.297Z,51004.99
2022-08-29T13:57:35.051Z,51021.86
2022-08-29T14:00:06.644Z,51023.07
2022-08-29T14:02:39.297Z,51016.64
2022-08-29T14:05:13.752Z,51028.29
2022-08-29T14:07:44.140Z,51046.77
2022-08-29T14:10:14.520Z,51062.04
2022-08-29T14:12:44.481Z,51086.14
2022-08-29T14:15:17.906Z,51095.38
2022-08-29T14:17:48.733Z,51080.12
2022-08-29T14:20:19.351Z,51077.70
2022-08-29T14:22:49.366Z,51082.93
2022-08-29T14:25:19.947Z,51080.52
2022-08-29T14:27:50.230Z,51076.90
2022-08-29T14:30:20.617Z,51093.38
2022-08-29T14:32:50.590Z,51095.38
2022-08-29T14:35:26.412Z,51107.84
2022-08-29T14:38:01.587Z,51117.88
2022-08-29T14:40:32.478Z,51144.40
2022-08-29T14:43:02.649Z,51130.73
2022-08-29T14:45:32.475Z,51158.05
2022-08-29T14:48:02.328Z,51168.90
2022-08-29T14:50:32.404Z,51175.33
2022-08-29T14:53:02.422Z,51201.85
2022-08-29T14:55:33.552Z,51193.81
2022-08-29T14:58:03.986Z,51204.66
2022-08-29T15:00:34.373Z,51210.29
2022-08-29T15:03:04.257Z,51209.88
2022-08-29T15:05:34.376Z,51222.74
2022-08-29T15:08:06.537Z,51228.76
2022-08-29T15:10:36.812Z,51241.23
2022-08-29T15:13:07.658Z,51245.24
2022-08-29T15:15:37.877Z,51244.03
2022-08-29T15:18:07.855Z,51255.68
2022-08-29T15:20:40.125Z,51233.99
2022-08-29T15:23:13.335Z,51256.49
2022-08-29T15:25:45.163Z,51248.45
2022-08-29T15:28:22.153Z,51240.01
2022-08-29T15:30:52.032Z,51260.10
2022-08-29T15:33:21.909Z,51262.51
2022-08-29T15:35:51.745Z,51276.98
2022-08-29T15:38:21.706Z,51265.73
2022-08-29T15:40:53.144Z,51283.40
2022-08-29T15:43:23.156Z,51296.26
2022-08-29T15:45:57.267Z,51290.23
2022-08-29T15:48:29.114Z,51315.14
2022-08-29T15:50:59.082Z,51316.75
2022-08-29T15:53:28.984Z,51318.76
2022-08-29T15:55:58.754Z,51326.39
2022-08-29T15:58:29.289Z,51334.43
2022-08-29T16:00:59.735Z,51326.80
2022-08-29T16:03:30.123Z,51339.65
2022-08-29T16:06:00.389Z,51351.70
2022-08-29T16:08:30.211Z,51343.27
2022-08-29T16:11:00.443Z,51355.32
2022-08-29T16:13:30.275Z,51355.32
2022-08-29T16:16:00.317Z,51364.97
2022-08-29T16:18:30.265Z,51368.98
2022-08-29T16:21:00.174Z,51382.24
2022-08-29T16:23:30.139Z,51375.01
2022-08-29T16:26:00.247Z,51376.62
2022-08-29T16:28:31.966Z,51392.68
2022-08-29T16:31:01.865Z,51393.09
2022-08-29T16:33:31.898Z,51390.27
2022-08-29T16:36:01.806Z,51397.11
2022-08-29T16:38:31.737Z,51404.34
2022-08-29T16:41:02.491Z,51407.95
2022-08-29T16:43:32.420Z,51395.90
2022-08-29T16:46:02.209Z,51411.17
2022-08-29T16:48:32.195Z,51420.41
2022-08-29T16:51:02.557Z,51416.79
2022-08-29T16:53:35.497Z,51422.02
2022-08-29T16:56:09.284Z,51426.43
2022-08-29T16:58:56.763Z,51427.24
2022-08-29T17:01:26.782Z,51418.40
2022-08-29T17:03:57.114Z,51421.61
2022-08-29T17:06:28.185Z,51424.02
2022-08-29T17:08:56.946Z,51427.64
2022-08-29T17:11:25.789Z,51433.27
2022-08-29T17:13:54.443Z,51440.50
2022-08-29T17:16:23.272Z,51429.25
2022-08-29T17:18:53.388Z,51432.06
2022-08-29T17:21:23.196Z,51446.93
2022-08-29T17:23:52.992Z,51443.31
2022-08-29T17:26:22.945Z,51456.97
2022-08-29T17:28:52.813Z,51450.95
2022-08-29T17:31:23.233Z,51446.13
2022-08-29T17:33:53.043Z,51462.20
2022-08-29T17:36:23.439Z,51453.36
2022-08-29T17:38:53.321Z,51464.60
2022-08-29T17:41:23.538Z,51454.96
2022-08-29T17:43:53.561Z,51466.61
2022-08-29T17:46:23.575Z,51466.21
2022-08-29T17:48:53.482Z,51469.43
2022-08-29T17:51:23.265Z,51486.70
2022-08-29T17:53:54.151Z,51459.38
2022-08-29T17:56:30.878Z,51481.88
2022-08-29T17:59:02.775Z,51471.44
2022-08-29T18:01:36.028Z,51475.05
2022-08-29T18:04:06.029Z,51487.50
2022-08-29T18:06:35.987Z,51477.05
2022-08-29T18:09:06.213Z,51477.86
2022-08-29T18:11:36.253Z,51482.29
2022-08-29T18:14:06.014Z,51493.13
2022-08-29T18:16:36.292Z,51492.73
2022-08-29T18:19:06.132Z,51495.54
2022-08-29T18:21:36.219Z,51503.98
2022-08-29T18:24:06.802Z,51503.18
2022-08-29T18:26:36.640Z,51502.77
2022-08-29T18:29:06.771Z,51520.05
2022-08-29T18:31:36.864Z,51510.41
2022-08-29T18:34:06.870Z,51505.18
2022-08-29T18:36:37.639Z,51530.10
2022-08-29T18:39:08.201Z,51526.08
2022-08-29T18:41:38.100Z,51531.70
2022-08-29T18:44:07.968Z,51535.32
2022-08-29T18:46:41.231Z,51530.50
2022-08-29T18:49:11.703Z,51535.32
2022-08-29T18:51:41.804Z,51526.08
2022-08-29T18:54:14.241Z,51525.68
2022-08-29T18:56:47.469Z,51538.53
2022-08-29T18:59:17.456Z,51532.91
2022-08-29T19:01:47.571Z,51532.10
2022-08-29T19:04:20.279Z,51536.52
2022-08-29T19:06:52.061Z,51529.29
2022-08-29T19:09:22.073Z,51533.71
2022-08-29T19:11:52.545Z,51539.74
2022-08-29T19:14:22.519Z,51553.40
2022-08-29T19:16:52.613Z,51522.86
2022-08-29T19:19:22.550Z,51540.54
2022-08-29T19:21:52.941Z,51533.71
2022-08-29T19:24:22.828Z,51520.05
2022-08-29T19:26:52.912Z,51512.02
2022-08-29T19:29:23.326Z,51539.34
2022-08-29T19:31:53.401Z,51525.27
2022-08-29T19:34:23.238Z,51544.96
2022-08-29T19:36:53.024Z,51532.51
2022-08-29T19:39:23.354Z,51544.56
2022-08-29T19:41:53.227Z,51553.80
2022-08-29T19:44:23.106Z,51554.21
2022-08-29T19:46:53.117Z,51551.79
2022-08-29T19:49:23.017Z,51565.05
2022-08-29T19:51:53.136Z,51553.80
2022-08-29T19:54:23.158Z,51579.92
2022-08-29T19:56:53.172Z,51570.27
2022-08-29T19:59:23.266Z,51583.93
2022-08-29T20:01:53.388Z,51577.51
2022-08-29T20:04:23.509Z,51583.94
2022-08-29T20:06:57.289Z,51580.72
2022-08-29T20:09:30.057Z,51589.56
2022-08-29T20:12:00.495Z,51594.38
2022-08-29T20:14:30.505Z,51600.01
2022-08-29T20:17:02.793Z,51592.77
2022-08-29T20:19:34.922Z,51611.66
2022-08-29T20:22:04.969Z,51618.89
2022-08-29T20:24:34.935Z,51612.06
2022-08-29T20:27:05.733Z,51608.45
2022-08-29T20:32:10.443Z,51626.53
2022-08-29T20:34:40.577Z,51628.13
2022-08-29T20:37:10.703Z,51614.88
2022-08-29T20:39:41.593Z,51628.13
2022-08-29T20:42:11.500Z,51622.11
2022-08-29T20:44:43.815Z,51626.13
2022-08-29T20:47:15.242Z,51634.56
2022-08-29T20:49:45.336Z,51614.88
2022-08-29T20:52:16.726Z,51649.43
2022-08-29T20:54:46.498Z,51642.60
2022-08-29T20:57:16.537Z,51632.55
2022-08-29T20:59:46.713Z,51635.36
2022-08-29T21:02:16.695Z,51626.52
2022-08-29T21:05:04.146Z,51642.60
2022-08-29T21:07:34.022Z,51635.77
2022-08-29T21:10:03.946Z,51639.39
2022-08-29T21:12:33.922Z,51640.19
2022-08-29T21:15:04.043Z,51638.98
2022-08-29T21:17:34.045Z,51643.00
2022-08-29T21:20:04.595Z,51657.06
2022-08-29T21:22:34.695Z,51645.01
2022-08-29T21:25:04.843Z,51633.76
2022-08-29T21:27:34.626Z,51654.65
2022-08-29T21:30:04.575Z,51664.70
2022-08-29T21:32:35.535Z,51656.66
2022-08-29T21:35:05.900Z,51662.29
2022-08-29T21:37:36.010Z,51654.65
2022-08-29T21:40:06.960Z,51664.70
2022-08-29T21:42:37.685Z,51659.07
2022-08-29T21:45:08.483Z,51646.21
2022-08-29T21:47:38.378Z,51653.45
2022-08-29T21:50:09.118Z,51656.26
2022-08-29T21:52:38.967Z,51665.10
2022-08-29T21:55:10.029Z,51669.52
2022-08-29T21:57:58.030Z,51673.14
2022-08-29T22:00:28.487Z,51670.32
2022-08-29T22:02:58.413Z,51687.20
2022-08-29T22:05:28.481Z,51673.54
2022-08-29T22:08:01.281Z,51692.82
2022-08-29T22:10:31.753Z,51673.94
2022-08-29T22:13:01.606Z,51664.70
2022-08-29T22:15:48.945Z,51684.79
2022-08-29T22:18:19.393Z,51687.60
2022-08-29T22:20:52.893Z,51676.75
2022-08-29T22:23:26.295Z,51664.29
2022-08-29T22:25:56.640Z,51701.66
2022-08-29T22:28:26.521Z,51688.80
2022-08-29T22:30:56.391Z,51686.80
2022-08-29T22:33:26.194Z,51694.03
2022-08-29T22:35:56.073Z,51692.42
2022-08-29T22:38:26.160Z,51693.63
2022-08-29T22:40:56.078Z,51694.03
2022-08-29T22:43:25.939Z,51691.62
2022-08-29T22:45:55.734Z,51691.62
2022-08-29T22:48:25.615Z,51700.05
2022-08-29T22:50:58.444Z,51679.16
2022-08-29T22:53:28.646Z,51685.59
2022-08-29T22:55:58.651Z,51704.48
2022-08-29T22:58:29.384Z,51706.89
2022-08-29T23:00:59.323Z,51693.23
2022-08-29T23:03:29.251Z,51685.99
2022-08-29T23:05:59.185Z,51688.00
2022-08-29T23:08:29.179Z,51705.68
2022-08-29T23:10:59.087Z,51704.48
2022-08-29T23:13:29.127Z,51693.23
2022-08-29T23:16:01.088Z,51696.84
2022-08-29T23:18:30.987Z,51695.23
2022-08-29T23:21:00.849Z,51712.11
2022-08-29T23:23:30.813Z,51721.75
2022-08-29T23:26:00.643Z,51720.55
2022-08-29T23:28:30.423Z,51722.56
2022-08-29T23:31:00.443Z,51728.99
2022-08-29T23:33:30.357Z,51718.54
2022-08-29T23:36:00.233Z,51722.56
2022-08-29T23:38:29.999Z,51733.80
2022-08-29T23:40:59.818Z,51725.37
2022-08-29T23:43:29.768Z,51706.89
2022-08-29T23:46:06.806Z,51716.93
2022-08-29T23:48:36.797Z,51728.18
2022-08-29T23:51:07.741Z,51703.68
2022-08-29T23:53:37.592Z,51715.32
2022-08-29T23:56:10.697Z,51715.73
2022-08-29T23:58:40.571Z,51709.30
